createdAt,value
2022-12-09T00:01:19.519Z,9.80
2022-12-09T00:03:27.308Z,10.95
2022-12-09T00:05:32.854Z,10.52
2022-12-09T00:07:38.855Z,9.85
2022-12-09T00:09:44.186Z,10.40
2022-12-09T00:11:49.138Z,9.82
2022-12-09T00:13:56.222Z,9.45
2022-12-09T00:16:04.623Z,11.13
2022-12-09T00:18:09.729Z,10.68
2022-12-09T00:20:20.003Z,11.27
2022-12-09T00:22:25.634Z,11.80
2022-12-09T00:24:30.991Z,15.05
2022-12-09T00:26:37.097Z,23.63
2022-12-09T00:28:43.638Z,31.67
2022-12-09T00:30:49.094Z,19.90
2022-12-09T00:32:54.354Z,14.50
2022-12-09T00:34:59.870Z,14.20
2022-12-09T00:37:09.129Z,19.10
2022-12-09T00:39:15.214Z,18.77
2022-12-09T00:41:21.577Z,15.45
2022-12-09T00:43:28.836Z,15.07
2022-12-09T00:45:34.509Z,15.75
2022-12-09T00:47:40.103Z,15.25
2022-12-09T00:49:45.797Z,14.90
2022-12-09T00:51:50.915Z,15.95
2022-12-09T00:53:59.089Z,14.70
2022-12-09T00:56:05.532Z,14.15
2022-12-09T00:58:10.474Z,13.98
2022-12-09T01:00:16.796Z,14.45
2022-12-09T01:02:22.077Z,12.98
2022-12-09T01:04:27.968Z,13.32
2022-12-09T01:06:33.831Z,11.25
2022-12-09T01:08:39.674Z,9.40
2022-12-09T01:10:49.098Z,9.10
2022-12-09T01:12:54.062Z,8.07
2022-12-09T01:14:59.058Z,8.18
2022-12-09T01:17:05.415Z,9.52
2022-12-09T01:19:16.130Z,8.05
2022-12-09T01:21:21.668Z,9.30
2022-12-09T01:23:27.295Z,8.88
2022-12-09T01:25:32.900Z,8.07
2022-12-09T01:27:40.603Z,8.43
2022-12-09T01:29:46.524Z,9.00
2022-12-09T01:31:51.701Z,8.45
2022-12-09T01:33:58.658Z,8.63
2022-12-09T01:36:06.340Z,9.02
2022-12-09T01:38:11.844Z,8.40
2022-12-09T01:40:20.410Z,8.35
2022-12-09T01:42:29.037Z,9.55
2022-12-09T01:44:37.515Z,10.43
2022-12-09T01:46:43.074Z,10.02
2022-12-09T01:48:49.971Z,9.02
2022-12-09T01:51:00.022Z,9.25
2022-12-09T01:53:05.359Z,8.63
2022-12-09T01:55:12.881Z,8.88
2022-12-09T01:57:18.579Z,9.45
2022-12-09T01:59:25.376Z,10.45
2022-12-09T02:01:33.560Z,9.60
2022-12-09T02:03:39.853Z,10.40
2022-12-09T02:05:46.334Z,9.77
2022-12-09T02:07:51.671Z,9.73
2022-12-09T02:09:57.152Z,9.27
2022-12-09T02:12:18.688Z,10.00
2022-12-09T02:14:31.033Z,9.30
2022-12-09T02:16:54.539Z,8.52
2022-12-09T02:19:10.216Z,8.63
2022-12-09T02:21:24.059Z,9.18
2022-12-09T02:23:41.682Z,8.43
2022-12-09T02:25:52.664Z,8.30
2022-12-09T02:28:24.846Z,9.05
2022-12-09T02:30:40.458Z,7.80
2022-12-09T02:33:37.294Z,9.00
2022-12-09T02:35:53.469Z,8.20
2022-12-09T02:38:08.453Z,6.80
2022-12-09T02:40:22.091Z,8.48
2022-12-09T02:42:33.474Z,8.18
2022-12-09T02:44:42.142Z,8.45
2022-12-09T02:46:49.680Z,8.68
2022-12-09T02:48:59.447Z,8.68
2022-12-09T02:51:12.975Z,9.25
2022-12-09T02:53:20.472Z,8.52
2022-12-09T02:55:26.736Z,9.90
2022-12-09T02:57:34.578Z,9.27
2022-12-09T02:59:39.621Z,9.13
2022-12-09T03:01:51.438Z,8.93
2022-12-09T03:03:57.341Z,9.80
2022-12-09T03:06:11.000Z,10.00
2022-12-09T03:08:26.938Z,9.05
2022-12-09T03:10:39.910Z,9.10
2022-12-09T03:12:53.533Z,10.00
2022-12-09T03:15:00.894Z,9.60
2022-12-09T03:17:16.168Z,9.48
2022-12-09T03:19:27.945Z,11.20
2022-12-09T03:21:38.287Z,10.23
2022-12-09T03:23:46.791Z,9.30
2022-12-09T03:25:56.120Z,9.25
2022-12-09T03:28:05.615Z,9.70
2022-12-09T03:30:13.781Z,9.60
2022-12-09T03:32:21.863Z,10.38
2022-12-09T03:34:33.576Z,10.10
2022-12-09T03:36:45.974Z,10.18
2022-12-09T03:38:54.422Z,9.45
2022-12-09T03:41:08.389Z,9.88
2022-12-09T03:43:18.193Z,9.90
2022-12-09T03:45:24.859Z,10.00
2022-12-09T03:47:30.403Z,9.85
2022-12-09T03:49:35.919Z,10.80
2022-12-09T03:51:49.303Z,9.95
2022-12-09T03:54:03.494Z,10.68
2022-12-09T03:56:15.377Z,11.00
2022-12-09T03:58:20.643Z,10.20
2022-12-09T04:00:25.957Z,10.48
2022-12-09T04:02:32.435Z,11.30
2022-12-09T04:04:41.510Z,10.30
2022-12-09T04:06:50.619Z,12.40
2022-12-09T04:09:01.940Z,11.15
2022-12-09T04:11:07.877Z,11.60
2022-12-09T04:13:13.043Z,10.80
2022-12-09T04:15:18.810Z,12.25
2022-12-09T04:17:24.177Z,12.45
2022-12-09T04:19:29.728Z,12.23
2022-12-09T04:21:35.338Z,12.63
2022-12-09T04:23:43.542Z,12.55
2022-12-09T04:25:49.305Z,11.45
2022-12-09T04:27:55.103Z,12.05
2022-12-09T04:30:00.931Z,11.90
2022-12-09T04:32:06.082Z,11.85
2022-12-09T04:34:11.555Z,12.75
2022-12-09T04:36:18.883Z,12.63
2022-12-09T04:38:24.010Z,15.10
2022-12-09T04:40:32.561Z,12.40
2022-12-09T04:42:37.847Z,13.88
2022-12-09T04:44:43.467Z,12.73
2022-12-09T04:46:48.480Z,12.88
2022-12-09T04:48:54.204Z,13.32
2022-12-09T04:50:59.966Z,14.00
2022-12-09T04:53:05.830Z,13.85
2022-12-09T04:55:14.200Z,13.23
2022-12-09T04:57:22.253Z,13.50
2022-12-09T04:59:29.060Z,12.75
2022-12-09T05:01:34.653Z,13.90
2022-12-09T05:03:41.283Z,13.13
2022-12-09T05:05:47.105Z,14.23
2022-12-09T05:07:52.497Z,13.90
2022-12-09T05:09:58.811Z,14.27
2022-12-09T05:12:04.222Z,14.90
2022-12-09T05:14:12.502Z,15.20
2022-12-09T05:16:20.183Z,14.98
2022-12-09T05:18:25.810Z,15.23
2022-12-09T05:20:31.699Z,15.02
2022-12-09T05:22:36.926Z,13.20
2022-12-09T05:24:44.000Z,15.00
2022-12-09T05:26:50.784Z,14.07
2022-12-09T05:28:56.792Z,15.82
2022-12-09T05:31:06.560Z,14.60
2022-12-09T05:33:13.006Z,15.32
2022-12-09T05:35:18.719Z,14.10
2022-12-09T05:37:24.210Z,14.35
2022-12-09T05:39:29.810Z,15.00
2022-12-09T05:41:35.526Z,13.77
2022-12-09T05:43:41.212Z,13.95
2022-12-09T05:45:47.239Z,14.05
2022-12-09T05:47:55.640Z,13.82
2022-12-09T05:50:07.365Z,13.70
2022-12-09T05:52:14.485Z,14.45
2022-12-09T05:54:20.228Z,14.43
2022-12-09T05:56:27.537Z,14.98
2022-12-09T05:58:33.220Z,15.02
2022-12-09T06:00:38.712Z,16.05
2022-12-09T06:02:44.435Z,16.15
2022-12-09T06:04:52.950Z,15.57
2022-12-09T06:06:58.824Z,19.88
2022-12-09T06:09:08.875Z,18.92
2022-12-09T06:11:17.413Z,17.08
2022-12-09T06:13:22.960Z,17.30
2022-12-09T06:15:33.177Z,17.58
2022-12-09T06:17:39.616Z,15.75
2022-12-09T06:19:44.761Z,16.70
2022-12-09T06:21:52.746Z,18.95
2022-12-09T06:23:58.006Z,17.63
2022-12-09T06:26:03.036Z,18.95
2022-12-09T06:28:08.852Z,18.38
2022-12-09T06:30:14.350Z,17.95
2022-12-09T06:32:21.041Z,19.05
2022-12-09T06:34:26.848Z,17.65
2022-12-09T06:36:34.494Z,19.98
2022-12-09T06:38:42.596Z,18.33
2022-12-09T06:40:48.560Z,18.10
2022-12-09T06:42:54.884Z,17.05
2022-12-09T06:45:00.567Z,18.05
2022-12-09T06:47:05.943Z,20.50
2022-12-09T06:49:12.779Z,23.25
2022-12-09T06:51:19.103Z,23.17
2022-12-09T06:53:24.192Z,24.25
2022-12-09T06:55:31.820Z,23.38
2022-12-09T06:57:37.624Z,24.77
2022-12-09T06:59:42.873Z,22.15
2022-12-09T07:01:48.860Z,24.88
2022-12-09T07:04:00.574Z,25.60
2022-12-09T07:06:06.238Z,16.70
2022-12-09T07:08:11.778Z,25.88
2022-12-09T07:10:17.693Z,27.00
2022-12-09T07:12:25.498Z,29.00
2022-12-09T07:14:30.765Z,26.30
2022-12-09T07:16:36.213Z,27.98
2022-12-09T07:18:42.249Z,29.02
2022-12-09T07:20:47.673Z,26.58
2022-12-09T07:22:53.811Z,25.52
2022-12-09T07:25:00.934Z,28.67
2022-12-09T07:27:10.743Z,25.08
2022-12-09T07:29:21.643Z,24.30
2022-12-09T07:31:29.503Z,24.23
2022-12-09T07:33:35.175Z,22.85
2022-12-09T07:35:40.901Z,20.05
2022-12-09T07:37:46.375Z,23.48
2022-12-09T07:39:51.459Z,21.77
2022-12-09T07:41:58.930Z,21.88
2022-12-09T07:44:08.667Z,21.55
2022-12-09T07:46:18.409Z,22.63
2022-12-09T07:48:24.013Z,22.25
2022-12-09T07:50:29.150Z,20.77
2022-12-09T07:52:35.654Z,22.35
2022-12-09T07:54:41.380Z,20.85
2022-12-09T07:56:47.424Z,20.33
2022-12-09T07:58:54.584Z,19.85
2022-12-09T08:01:00.518Z,20.45
2022-12-09T08:03:08.375Z,22.02
2022-12-09T08:05:14.690Z,20.27
2022-12-09T08:07:20.524Z,19.20
2022-12-09T08:09:26.310Z,18.50
2022-12-09T08:11:34.402Z,19.13
2022-12-09T08:13:42.348Z,17.80
2022-12-09T08:15:47.591Z,19.85
2022-12-09T08:17:52.998Z,19.00
2022-12-09T08:20:01.144Z,19.10
2022-12-09T08:22:06.919Z,17.52
2022-12-09T08:24:15.270Z,17.73
2022-12-09T08:26:24.851Z,15.45
2022-12-09T08:28:31.560Z,15.52
2022-12-09T08:30:36.954Z,15.27
2022-12-09T08:32:42.593Z,15.57
2022-12-09T08:34:48.987Z,14.82
2022-12-09T08:37:01.774Z,15.52
2022-12-09T08:39:08.569Z,14.18
2022-12-09T08:41:17.693Z,14.13
2022-12-09T08:43:22.748Z,15.57
2022-12-09T08:45:28.228Z,15.77
2022-12-09T08:47:34.685Z,18.45
2022-12-09T08:49:40.336Z,16.48
2022-12-09T08:51:45.545Z,17.50
2022-12-09T08:53:53.511Z,14.95
2022-12-09T08:55:58.910Z,14.90
2022-12-09T08:58:04.508Z,15.35
2022-12-09T09:00:12.297Z,14.88
2022-12-09T09:02:18.575Z,15.18
2022-12-09T09:04:25.413Z,15.15
2022-12-09T09:06:31.392Z,15.50
2022-12-09T09:08:37.436Z,15.57
2022-12-09T09:10:45.449Z,14.73
2022-12-09T09:12:51.263Z,15.63
2022-12-09T09:14:57.361Z,14.07
2022-12-09T09:19:10.564Z,13.65
2022-12-09T09:21:19.584Z,14.90
2022-12-09T09:23:24.952Z,13.82
2022-12-09T09:25:30.086Z,14.18
2022-12-09T09:27:38.502Z,13.55
2022-12-09T09:29:43.914Z,12.30
2022-12-09T09:31:54.619Z,12.25
2022-12-09T09:34:01.034Z,11.63
2022-12-09T09:36:11.351Z,12.20
2022-12-09T09:38:16.438Z,13.00
2022-12-09T09:40:22.554Z,14.10
2022-12-09T09:42:36.508Z,13.82
2022-12-09T09:44:49.403Z,13.38
2022-12-09T09:46:57.366Z,13.57
2022-12-09T09:49:04.329Z,14.02
2022-12-09T09:51:18.439Z,13.55
2022-12-09T09:53:31.448Z,12.45
2022-12-09T09:55:45.470Z,12.85
2022-12-09T09:58:02.203Z,12.98
2022-12-09T10:00:24.795Z,13.68
2022-12-09T10:02:48.451Z,13.55
2022-12-09T10:07:26.112Z,13.05
2022-12-09T10:09:51.117Z,14.45
2022-12-09T10:12:06.579Z,16.02
2022-12-09T10:14:20.325Z,25.27
2022-12-09T10:16:38.178Z,14.27
2022-12-09T10:19:08.204Z,15.70
2022-12-09T10:21:21.172Z,13.98
2022-12-09T10:23:29.242Z,13.20
2022-12-09T10:25:38.605Z,13.63
2022-12-09T10:27:50.583Z,13.95
2022-12-09T10:30:02.553Z,14.45
2022-12-09T10:32:18.174Z,10.63
2022-12-09T10:34:24.818Z,14.88
2022-12-09T10:36:36.121Z,14.93
2022-12-09T10:38:44.649Z,17.77
2022-12-09T10:41:10.454Z,16.83
2022-12-09T10:43:42.480Z,17.08
2022-12-09T10:48:34.118Z,17.25
2022-12-09T10:50:40.431Z,15.52
2022-12-09T10:52:49.386Z,15.63
2022-12-09T10:54:54.597Z,16.92
2022-12-09T10:57:26.068Z,17.25
2022-12-09T10:59:33.526Z,16.50
2022-12-09T11:01:52.795Z,17.90
2022-12-09T11:04:01.542Z,19.80
2022-12-09T11:06:21.801Z,17.98
2022-12-09T11:08:27.748Z,22.98
2022-12-09T11:10:35.354Z,17.98
2022-12-09T11:12:41.752Z,18.20
2022-12-09T11:14:54.996Z,19.05
2022-12-09T11:17:06.422Z,19.17
2022-12-09T11:19:17.758Z,18.70
2022-12-09T11:21:39.544Z,18.88
2022-12-09T11:24:02.630Z,19.33
2022-12-09T11:26:24.536Z,19.55
2022-12-09T11:28:32.889Z,20.10
2022-12-09T11:31:04.906Z,19.98
2022-12-09T11:33:27.339Z,21.83
2022-12-09T11:35:42.747Z,18.00
2022-12-09T11:37:47.912Z,16.95
2022-12-09T11:39:54.326Z,19.23
2022-12-09T11:42:18.926Z,19.48
2022-12-09T11:44:32.058Z,17.90
2022-12-09T11:46:37.268Z,17.42
2022-12-09T11:48:45.020Z,18.65
2022-12-09T11:50:54.448Z,19.23
2022-12-09T11:53:18.768Z,18.60
2022-12-09T11:55:27.636Z,18.13
2022-12-09T11:57:38.983Z,19.65
2022-12-09T11:59:52.278Z,18.83
2022-12-09T12:02:06.116Z,20.23
2022-12-09T12:04:15.149Z,22.60
2022-12-09T12:06:26.616Z,26.58
2022-12-09T12:08:38.503Z,24.42
2022-12-09T12:10:49.627Z,25.85
2022-12-09T12:13:05.691Z,24.67
2022-12-09T12:15:18.731Z,23.13
2022-12-09T12:17:36.012Z,22.58
2022-12-09T12:19:44.455Z,23.02
2022-12-09T12:22:20.464Z,22.38
2022-12-09T12:24:49.191Z,21.75
2022-12-09T12:27:10.483Z,23.67
2022-12-09T12:29:34.423Z,25.92
2022-12-09T12:32:07.134Z,24.13
2022-12-09T12:34:25.546Z,22.30
2022-12-09T12:36:44.258Z,22.83
2022-12-09T12:39:07.403Z,22.83
2022-12-09T12:41:20.049Z,23.88
2022-12-09T12:44:04.783Z,22.67
2022-12-09T12:46:36.498Z,20.23
2022-12-09T12:49:01.339Z,18.83
2022-12-09T12:51:21.297Z,21.45
2022-12-09T12:53:38.951Z,21.25
2022-12-09T12:55:55.680Z,20.15
2022-12-09T12:58:13.332Z,20.92
2022-12-09T13:00:24.085Z,17.42
2022-12-09T13:02:44.585Z,18.13
2022-12-09T13:04:55.626Z,17.10
2022-12-09T13:07:08.652Z,16.30
2022-12-09T13:09:22.454Z,18.60
2022-12-09T13:11:39.895Z,21.77
2022-12-09T13:13:51.151Z,20.05
2022-12-09T13:16:01.700Z,19.98
2022-12-09T13:18:17.229Z,19.98
2022-12-09T13:20:27.863Z,19.42
2022-12-09T13:22:42.337Z,19.35
2022-12-09T13:25:00.375Z,17.88
2022-12-09T13:27:14.331Z,21.60
2022-12-09T13:29:37.250Z,25.02
2022-12-09T13:31:55.432Z,17.27
2022-12-09T13:34:21.283Z,21.30
2022-12-09T13:36:39.104Z,19.77
2022-12-09T13:38:46.891Z,20.63
2022-12-09T13:40:52.376Z,21.50
2022-12-09T13:43:21.926Z,21.85
2022-12-09T13:45:36.190Z,23.33
2022-12-09T13:47:41.512Z,21.65
2022-12-09T13:49:58.804Z,21.60
2022-12-09T13:52:03.844Z,19.65
2022-12-09T13:54:09.309Z,19.25
2022-12-09T13:56:29.247Z,20.25
2022-12-09T13:59:18.589Z,19.23
2022-12-09T14:01:28.114Z,19.50
2022-12-09T14:03:36.515Z,19.95
2022-12-09T14:05:42.153Z,21.05
2022-12-09T14:07:56.188Z,21.02
2022-12-09T14:10:02.914Z,21.23
2022-12-09T14:12:10.186Z,21.75
2022-12-09T14:14:50.227Z,23.85
2022-12-09T14:16:57.090Z,22.48
2022-12-09T14:19:52.481Z,22.50
2022-12-09T14:22:37.803Z,21.98
2022-12-09T14:24:43.843Z,21.30
2022-12-09T14:27:10.449Z,22.20
2022-12-09T14:29:55.505Z,22.13
2022-12-09T14:32:05.719Z,19.58
2022-12-09T14:34:37.211Z,19.30
2022-12-09T14:36:42.581Z,18.98
2022-12-09T14:39:16.091Z,18.58
2022-12-09T14:41:28.599Z,19.23
2022-12-09T14:43:54.179Z,19.90
2022-12-09T14:46:04.850Z,18.98
2022-12-09T14:48:19.070Z,20.35
2022-12-09T14:50:27.767Z,18.80
2022-12-09T14:52:35.655Z,19.02
2022-12-09T14:54:47.107Z,18.80
2022-12-09T14:56:55.042Z,18.55
2022-12-09T14:59:05.824Z,17.67
2022-12-09T15:01:13.538Z,17.48
2022-12-09T15:03:45.465Z,18.05
2022-12-09T15:05:58.777Z,17.13
2022-12-09T15:08:03.899Z,17.67
2022-12-09T15:10:21.876Z,17.52
2022-12-09T15:12:33.335Z,16.95
2022-12-09T15:14:39.311Z,17.15
2022-12-09T15:16:50.453Z,18.45
2022-12-09T15:18:57.056Z,16.88
2022-12-09T15:21:04.042Z,16.38
2022-12-09T15:23:17.958Z,16.77
2022-12-09T15:25:25.563Z,17.73
2022-12-09T15:27:31.521Z,16.70
2022-12-09T15:29:37.212Z,19.30
2022-12-09T15:31:54.588Z,18.42
2022-12-09T15:34:03.442Z,18.40
2022-12-09T15:36:12.675Z,21.33
2022-12-09T15:38:17.967Z,22.60
2022-12-09T15:40:29.144Z,22.98
2022-12-09T15:42:34.227Z,24.17
2022-12-09T15:44:45.689Z,24.33
2022-12-09T15:46:58.167Z,23.55
2022-12-09T15:49:06.791Z,19.02
2022-12-09T15:51:20.487Z,25.88
2022-12-09T15:53:30.382Z,30.63
2022-12-09T15:55:42.684Z,28.27
2022-12-09T15:57:49.417Z,28.85
2022-12-09T16:00:00.755Z,30.00
2022-12-09T16:02:11.043Z,25.05
2022-12-09T16:04:21.449Z,24.88
2022-12-09T16:06:28.564Z,26.90
2022-12-09T16:08:39.860Z,24.50
2022-12-09T16:10:50.433Z,24.70
2022-12-09T16:13:09.189Z,27.40
2022-12-09T16:15:16.924Z,30.52
2022-12-09T16:17:29.243Z,32.88
2022-12-09T16:19:40.675Z,32.50
2022-12-09T16:21:46.767Z,32.83
2022-12-09T16:23:56.701Z,38.00
2022-12-09T16:26:07.397Z,35.90
2022-12-09T16:28:25.548Z,36.00
2022-12-09T16:30:34.740Z,33.58
2022-12-09T16:32:50.571Z,32.45
2022-12-09T16:34:58.386Z,32.78
2022-12-09T16:37:09.327Z,34.38
2022-12-09T16:39:42.900Z,32.88
2022-12-09T16:42:23.164Z,37.13
2022-12-09T16:44:36.752Z,34.17
2022-12-09T16:46:44.755Z,36.72
2022-12-09T16:48:53.637Z,37.42
2022-12-09T16:51:06.025Z,34.78
2022-12-09T16:53:18.772Z,35.85
2022-12-09T16:55:27.300Z,32.53
2022-12-09T16:57:32.659Z,32.63
2022-12-09T16:59:38.217Z,31.23
2022-12-09T17:01:45.273Z,33.55
2022-12-09T17:03:58.815Z,33.03
2022-12-09T17:06:04.007Z,36.75
2022-12-09T17:08:09.330Z,35.60
2022-12-09T17:10:17.304Z,40.38
2022-12-09T17:12:22.445Z,37.70
2022-12-09T17:14:27.438Z,34.55
2022-12-09T17:16:33.853Z,32.80
2022-12-09T17:18:43.040Z,31.27
2022-12-09T17:20:50.542Z,32.90
2022-12-09T17:22:55.632Z,33.00
2022-12-09T17:25:00.609Z,40.30
2022-12-09T17:27:05.951Z,36.42
2022-12-09T17:29:11.123Z,31.88
2022-12-09T17:31:18.892Z,31.80
2022-12-09T17:33:26.303Z,32.63
2022-12-09T17:35:33.850Z,31.85
2022-12-09T17:37:41.385Z,34.20
2022-12-09T17:39:51.172Z,43.08
2022-12-09T17:41:58.801Z,47.22
2022-12-09T17:44:04.116Z,44.33
2022-12-09T17:46:09.862Z,47.08
2022-12-09T17:48:14.981Z,44.97
2022-12-09T17:50:20.232Z,39.15
2022-12-09T17:52:25.201Z,40.58
2022-12-09T17:54:32.791Z,39.03
2022-12-09T17:56:38.095Z,38.17
2022-12-09T17:58:43.564Z,32.63
2022-12-09T18:00:48.935Z,28.80
2022-12-09T18:02:54.115Z,27.55
2022-12-09T18:04:59.080Z,27.55
2022-12-09T18:07:04.146Z,25.73
2022-12-09T18:09:13.107Z,25.42
2022-12-09T18:11:21.929Z,24.98
2022-12-09T18:13:28.509Z,25.42
2022-12-09T18:15:33.556Z,25.48
2022-12-09T18:17:38.463Z,25.83
2022-12-09T18:19:43.671Z,25.77
2022-12-09T18:21:49.035Z,26.95
2022-12-09T18:23:54.345Z,26.60
2022-12-09T18:26:00.191Z,29.38
2022-12-09T18:28:08.617Z,25.80
2022-12-09T18:30:16.672Z,27.48
2022-12-09T18:32:21.724Z,24.98
2022-12-09T18:34:27.364Z,25.92
2022-12-09T18:36:33.586Z,27.67
2022-12-09T18:38:38.659Z,26.35
2022-12-09T18:41:01.340Z,26.95
2022-12-09T18:43:08.880Z,25.35
2022-12-09T18:45:15.624Z,26.80
2022-12-09T18:47:20.847Z,26.15
2022-12-09T18:49:28.847Z,27.20
2022-12-09T18:51:34.199Z,26.90
2022-12-09T18:53:39.421Z,26.83
2022-12-09T18:55:45.123Z,27.67
2022-12-09T18:57:50.095Z,28.25
2022-12-09T18:59:57.896Z,30.70
2022-12-09T19:02:03.210Z,28.70
2022-12-09T19:04:11.266Z,29.02
2022-12-09T19:06:24.103Z,27.10
2022-12-09T19:08:29.086Z,28.73
2022-12-09T19:10:35.145Z,30.48
2022-12-09T19:12:50.593Z,29.75
2022-12-09T19:15:01.755Z,34.70
2022-12-09T19:17:06.993Z,35.03
2022-12-09T19:19:14.862Z,34.40
2022-12-09T19:21:23.569Z,34.03
2022-12-09T19:23:28.923Z,30.13
2022-12-09T19:25:33.953Z,30.02
2022-12-09T19:27:39.622Z,31.10
2022-12-09T19:29:44.643Z,34.90
2022-12-09T19:31:57.138Z,32.53
2022-12-09T19:34:05.144Z,30.85
2022-12-09T19:36:11.559Z,34.95
2022-12-09T19:38:16.524Z,33.45
2022-12-09T19:40:22.347Z,29.90
2022-12-09T19:42:27.260Z,31.30
2022-12-09T19:45:00.188Z,29.48
2022-12-09T19:47:00.223Z,30.55
2022-12-09T19:49:05.318Z,30.85
2022-12-09T19:51:12.615Z,31.80
2022-12-09T19:53:17.577Z,29.77
2022-12-09T19:55:22.688Z,33.15
2022-12-09T19:57:28.129Z,31.67
2022-12-09T19:59:33.475Z,32.75
2022-12-09T20:01:41.866Z,32.00
2022-12-09T20:03:53.388Z,33.92
2022-12-09T20:05:58.633Z,32.90
2022-12-09T20:08:03.960Z,32.80
2022-12-09T20:10:14.542Z,33.28
2022-12-09T20:12:19.612Z,31.35
2022-12-09T20:14:24.834Z,32.40
2022-12-09T20:16:31.199Z,33.85
2022-12-09T20:18:36.855Z,35.85
2022-12-09T20:20:49.062Z,35.67
2022-12-09T20:22:54.643Z,36.05
2022-12-09T20:24:59.634Z,30.80
2022-12-09T20:27:05.648Z,31.42
2022-12-09T20:29:14.078Z,32.38
2022-12-09T20:31:22.141Z,30.58
2022-12-09T20:33:27.136Z,32.30
2022-12-09T20:35:32.405Z,32.42
2022-12-09T20:37:40.672Z,32.38
2022-12-09T20:39:45.718Z,33.80
2022-12-09T20:41:52.599Z,32.38
2022-12-09T20:44:00.479Z,33.03
2022-12-09T20:46:08.549Z,31.83
2022-12-09T20:48:14.230Z,34.28
2022-12-09T20:50:19.387Z,31.38
2022-12-09T20:52:24.730Z,31.52
2022-12-09T20:54:32.370Z,34.05
2022-12-09T20:56:38.182Z,32.22
2022-12-09T20:58:45.671Z,30.58
2022-12-09T21:00:50.707Z,29.48
2022-12-09T21:02:56.730Z,30.92
2022-12-09T21:05:01.717Z,29.92
2022-12-09T21:07:06.783Z,28.88
2022-12-09T21:09:17.922Z,29.75
2022-12-09T21:11:28.029Z,29.95
2022-12-09T21:13:38.168Z,29.47
2022-12-09T21:15:43.713Z,31.20
2022-12-09T21:17:50.810Z,30.95
2022-12-09T21:19:56.123Z,30.45
2022-12-09T21:22:01.129Z,29.98
2022-12-09T21:24:07.537Z,30.98
2022-12-09T21:26:15.468Z,29.17
2022-12-09T21:28:23.203Z,28.58
2022-12-09T21:30:28.917Z,29.00
2022-12-09T21:32:34.442Z,30.10
2022-12-09T21:34:39.946Z,30.80
2022-12-09T21:36:48.249Z,30.08
2022-12-09T21:38:54.093Z,31.30
2022-12-09T21:40:59.070Z,30.20
2022-12-09T21:43:04.011Z,31.17
2022-12-09T21:45:13.148Z,29.95
2022-12-09T21:47:18.114Z,30.58
2022-12-09T21:49:23.068Z,28.70
2022-12-09T21:51:29.322Z,28.80
2022-12-09T21:53:35.354Z,30.17
2022-12-09T21:55:40.307Z,28.77
2022-12-09T21:57:45.667Z,29.35
2022-12-09T21:59:50.624Z,30.48
2022-12-09T22:01:58.756Z,31.88
2022-12-09T22:04:10.780Z,29.98
2022-12-09T22:06:16.277Z,31.73
2022-12-09T22:08:21.279Z,30.38
2022-12-09T22:10:27.234Z,30.58
2022-12-09T22:12:32.196Z,29.40
2022-12-09T22:14:37.196Z,28.45
2022-12-09T22:16:46.082Z,28.33
2022-12-09T22:18:56.111Z,28.38
2022-12-09T22:23:30.600Z,27.52
2022-12-09T22:25:35.691Z,31.27
2022-12-09T22:27:41.411Z,28.23
2022-12-09T22:29:46.633Z,28.20
2022-12-09T22:31:51.666Z,27.92
2022-12-09T22:34:02.632Z,28.48
2022-12-09T22:36:11.318Z,29.30
2022-12-09T22:38:16.582Z,25.90
2022-12-09T22:40:22.295Z,27.30
2022-12-09T22:42:27.320Z,27.05
2022-12-09T22:44:33.468Z,28.33
2022-12-09T22:46:38.508Z,27.33
2022-12-09T22:48:44.767Z,28.55
2022-12-09T22:50:52.705Z,27.58
2022-12-09T22:52:58.645Z,29.95
2022-12-09T22:55:04.003Z,29.15
2022-12-09T22:57:09.487Z,30.05
2022-12-09T22:59:16.506Z,28.13
2022-12-09T23:01:27.707Z,28.83
2022-12-09T23:03:32.709Z,26.48
2022-12-09T23:05:39.982Z,28.98
2022-12-09T23:07:47.584Z,27.98
2022-12-09T23:09:52.573Z,26.17
2022-12-09T23:11:57.818Z,25.30
2022-12-09T23:14:03.324Z,29.38
2022-12-09T23:16:12.408Z,28.30
2022-12-09T23:18:17.546Z,28.27
2022-12-09T23:20:22.963Z,29.52
2022-12-09T23:22:28.287Z,27.55
2022-12-09T23:24:35.854Z,28.75
2022-12-09T23:26:43.196Z,26.13
2022-12-09T23:28:51.266Z,30.08
2022-12-09T23:30:56.248Z,29.10
2022-12-09T23:33:01.704Z,30.17
2022-12-09T23:35:08.299Z,30.88
2022-12-09T23:37:14.615Z,26.67
2022-12-09T23:39:21.843Z,27.60
2022-12-09T23:41:31.195Z,29.40
2022-12-09T23:43:38.525Z,27.77
2022-12-09T23:45:43.502Z,29.33
2022-12-09T23:47:48.456Z,28.30
2022-12-09T23:49:53.422Z,27.80
2022-12-09T23:51:58.459Z,29.13
2022-12-09T23:54:07.128Z,29.55
2022-12-09T23:56:15.732Z,28.30
2022-12-09T23:58:23.813Z,30.02
